createdAt,value
2019-05-05T00:00:14.343Z,92.60
2019-05-05T00:03:00.245Z,92.90
2019-05-05T00:05:31.300Z,92.80
2019-05-05T00:08:00.360Z,93.40
2019-05-05T00:10:34.789Z,93.90
2019-05-05T00:13:08.396Z,93.50
2019-05-05T00:15:41.172Z,93.40
2019-05-05T00:18:10.520Z,93.70
2019-05-05T00:20:39.547Z,93.80
2019-05-05T00:23:08.851Z,94.00
2019-05-05T00:25:37.877Z,93.20
2019-05-05T00:28:06.943Z,93.40
2019-05-05T00:30:36.040Z,93.40
2019-05-05T00:33:05.645Z,93.60
2019-05-05T00:35:34.834Z,94.20
2019-05-05T00:38:05.088Z,94.50
2019-05-05T00:40:35.277Z,94.50
2019-05-05T00:43:05.341Z,94.50
2019-05-05T00:45:35.605Z,94.10
2019-05-05T00:48:18.440Z,94.70
2019-05-05T00:50:47.539Z,95.90
2019-05-05T00:53:16.576Z,96.50
2019-05-05T00:55:45.610Z,96.60
2019-05-05T00:58:14.659Z,96.20
2019-05-05T01:00:48.185Z,96.60
2019-05-05T01:03:18.791Z,97.40
2019-05-05T01:05:55.338Z,97.20
2019-05-05T01:08:30.539Z,97.20
2019-05-05T01:10:59.710Z,97.60
2019-05-05T01:13:28.752Z,98.20
2019-05-05T01:15:57.859Z,97.90
2019-05-05T01:18:27.047Z,97.10
2019-05-05T01:20:56.137Z,96.60
2019-05-05T01:23:25.291Z,96.20
2019-05-05T01:25:54.512Z,96.70
2019-05-05T01:28:24.965Z,96.50
2019-05-05T01:30:56.004Z,96.30
2019-05-05T01:33:35.407Z,96.30
2019-05-05T01:36:05.121Z,96.40
2019-05-05T01:38:38.267Z,95.50
2019-05-05T01:41:14.635Z,95.70
2019-05-05T01:43:45.210Z,95.20
2019-05-05T01:46:14.418Z,96.10
2019-05-05T01:48:44.499Z,96.20
2019-05-05T01:51:14.304Z,95.90
2019-05-05T01:53:44.331Z,95.50
2019-05-05T01:56:15.385Z,95.70
2019-05-05T01:58:44.573Z,96.40
2019-05-05T02:01:15.301Z,95.80
2019-05-05T02:03:44.705Z,95.70
2019-05-05T02:06:14.293Z,96.30
2019-05-05T02:08:45.464Z,95.70
2019-05-05T02:11:15.609Z,95.30
2019-05-05T02:13:45.201Z,95.00
2019-05-05T02:16:15.073Z,95.10
2019-05-05T02:18:45.071Z,95.30
2019-05-05T02:21:14.404Z,95.50
2019-05-05T02:23:45.288Z,96.00
2019-05-05T02:26:15.276Z,95.90
2019-05-05T02:28:46.212Z,95.30
2019-05-05T02:31:25.269Z,95.60
2019-05-05T02:33:56.587Z,94.80
2019-05-05T02:36:25.856Z,94.30
2019-05-05T02:38:56.687Z,95.10
2019-05-05T02:41:26.943Z,95.50
2019-05-05T02:43:56.720Z,94.80
2019-05-05T02:46:28.078Z,95.70
2019-05-05T02:48:59.707Z,96.70
2019-05-05T02:51:29.384Z,95.70
2019-05-05T02:54:00.620Z,96.00
2019-05-05T02:56:34.246Z,96.00
2019-05-05T02:59:06.312Z,95.90
2019-05-05T03:01:46.071Z,95.40
2019-05-05T03:04:15.263Z,95.80
2019-05-05T03:06:47.436Z,95.40
2019-05-05T03:09:18.395Z,95.50
2019-05-05T03:11:49.188Z,95.50
2019-05-05T03:14:19.825Z,96.80
2019-05-05T03:16:50.004Z,96.60
2019-05-05T03:19:23.521Z,96.90
2019-05-05T03:21:54.535Z,96.60
2019-05-05T03:24:23.814Z,97.00
2019-05-05T03:26:53.781Z,96.90
2019-05-05T03:29:24.378Z,97.10
2019-05-05T03:31:56.243Z,98.00
2019-05-05T03:34:24.603Z,97.50
2019-05-05T03:36:53.911Z,97.10
2019-05-05T03:39:25.124Z,97.10
2019-05-05T03:42:13.816Z,96.80
2019-05-05T03:45:04.190Z,97.30
2019-05-05T03:47:33.776Z,96.80
2019-05-05T03:50:04.372Z,97.20
2019-05-05T03:52:34.601Z,97.40
2019-05-05T03:55:06.269Z,97.00
2019-05-05T03:57:35.445Z,97.00
2019-05-05T04:00:07.208Z,97.00
2019-05-05T04:02:44.559Z,95.90
2019-05-05T04:05:18.500Z,96.80
2019-05-05T04:07:47.353Z,97.40
2019-05-05T04:10:18.147Z,96.70
2019-05-05T04:12:47.891Z,96.80
2019-05-05T04:15:16.941Z,97.30
2019-05-05T04:18:04.010Z,97.40
2019-05-05T04:20:33.877Z,96.70
2019-05-05T04:23:03.765Z,97.40
2019-05-05T04:25:34.876Z,97.80
2019-05-05T04:28:04.378Z,97.50
2019-05-05T04:30:33.898Z,98.30
2019-05-05T04:33:03.858Z,98.30
2019-05-05T04:35:33.938Z,98.50
2019-05-05T04:38:04.702Z,98.60
2019-05-05T04:40:34.526Z,98.20
2019-05-05T04:43:03.991Z,97.80
2019-05-05T04:45:34.738Z,98.00
2019-05-05T04:48:05.585Z,97.30
2019-05-05T04:50:36.264Z,97.30
2019-05-05T04:53:06.934Z,97.00
2019-05-05T04:55:35.977Z,97.00
2019-05-05T04:58:05.028Z,96.50
2019-05-05T05:00:34.262Z,96.40
2019-05-05T05:03:05.137Z,96.80
2019-05-05T05:05:38.813Z,97.40
2019-05-05T05:08:07.552Z,97.80
2019-05-05T05:10:36.636Z,97.20
2019-05-05T05:13:05.679Z,96.60
2019-05-05T05:15:34.742Z,97.40
2019-05-05T05:18:11.208Z,97.30
2019-05-05T05:20:40.264Z,97.70
2019-05-05T05:23:09.304Z,97.60
2019-05-05T05:25:38.432Z,97.90
2019-05-05T05:28:07.509Z,97.60
2019-05-05T05:30:36.851Z,97.30
2019-05-05T05:33:05.969Z,98.00
2019-05-05T05:35:35.043Z,98.30
2019-05-05T05:38:04.598Z,97.50
2019-05-05T05:40:35.629Z,97.80
2019-05-05T05:43:06.298Z,97.30
2019-05-05T05:45:46.208Z,97.20
2019-05-05T05:48:16.917Z,96.60
2019-05-05T05:50:47.711Z,96.00
2019-05-05T05:53:16.756Z,96.10
2019-05-05T05:55:45.831Z,96.10
2019-05-05T05:58:14.880Z,95.80
2019-05-05T06:00:44.400Z,95.70
2019-05-05T06:03:14.926Z,95.90
2019-05-05T06:05:44.127Z,96.00
2019-05-05T06:08:14.173Z,95.70
2019-05-05T06:10:44.231Z,95.50
2019-05-05T06:13:15.259Z,94.30
2019-05-05T06:15:44.538Z,93.80
2019-05-05T06:18:13.950Z,93.80
2019-05-05T06:20:44.593Z,92.40
2019-05-05T06:23:14.774Z,93.00
2019-05-05T06:25:44.856Z,92.80
2019-05-05T06:28:14.462Z,91.90
2019-05-05T06:30:44.497Z,91.80
2019-05-05T06:33:14.192Z,90.50
2019-05-05T06:35:44.351Z,91.00
2019-05-05T06:38:13.793Z,91.20
2019-05-05T06:41:00.975Z,91.70
2019-05-05T06:43:40.332Z,88.60
2019-05-05T06:46:11.119Z,90.20
2019-05-05T06:48:40.240Z,90.40
2019-05-05T06:51:09.284Z,85.60
2019-05-05T06:53:38.349Z,87.10
2019-05-05T06:56:07.385Z,84.40
2019-05-05T06:58:36.444Z,82.30
2019-05-05T07:01:05.573Z,83.60
2019-05-05T07:03:34.658Z,85.00
2019-05-05T07:06:04.400Z,87.40
2019-05-05T07:08:34.681Z,87.40
2019-05-05T07:11:04.315Z,86.40
2019-05-05T07:13:34.053Z,84.50
2019-05-05T07:16:04.799Z,85.30
2019-05-05T07:18:34.327Z,85.40
2019-05-05T07:21:03.822Z,88.10
2019-05-05T07:23:34.069Z,85.80
2019-05-05T07:26:04.137Z,81.20
2019-05-05T07:28:34.289Z,79.80
2019-05-05T07:31:04.363Z,82.50
2019-05-05T07:33:34.670Z,82.10
2019-05-05T07:36:21.942Z,80.10
2019-05-05T07:38:51.043Z,80.00
2019-05-05T07:41:20.091Z,81.50
2019-05-05T07:43:49.161Z,78.60
2019-05-05T07:46:18.212Z,79.20
2019-05-05T07:48:47.287Z,79.70
2019-05-05T07:51:16.355Z,80.00
2019-05-05T07:53:45.443Z,80.70
2019-05-05T07:56:14.669Z,81.90
2019-05-05T07:58:44.042Z,80.60
2019-05-05T08:01:14.082Z,79.80
2019-05-05T08:03:44.559Z,80.20
2019-05-05T08:06:14.497Z,78.70
2019-05-05T08:08:44.440Z,73.70
2019-05-05T08:11:14.791Z,69.10
2019-05-05T08:13:44.419Z,75.20
2019-05-05T08:16:21.282Z,79.10
2019-05-05T08:18:51.997Z,78.80
2019-05-05T08:21:21.041Z,77.60
2019-05-05T08:23:54.432Z,78.60
2019-05-05T08:26:27.254Z,77.90
2019-05-05T08:29:14.383Z,74.90
2019-05-05T08:32:00.381Z,74.60
2019-05-05T08:34:29.453Z,71.00
2019-05-05T08:36:59.972Z,74.50
2019-05-05T08:39:29.243Z,76.40
2019-05-05T08:41:58.311Z,74.80
2019-05-05T08:44:27.364Z,72.40
2019-05-05T08:46:57.964Z,73.00
2019-05-05T08:49:27.019Z,74.50
2019-05-05T08:51:56.076Z,75.90
2019-05-05T08:54:25.148Z,72.00
2019-05-05T08:56:55.004Z,72.10
2019-05-05T08:59:24.303Z,72.40
2019-05-05T09:02:15.169Z,74.40
2019-05-05T09:04:44.777Z,69.90
2019-05-05T09:07:13.984Z,69.50
2019-05-05T09:09:44.139Z,69.70
2019-05-05T09:12:14.045Z,71.10
2019-05-05T09:14:44.899Z,69.80
2019-05-05T09:17:13.992Z,70.80
2019-05-05T09:19:44.915Z,69.90
2019-05-05T09:22:14.107Z,69.10
2019-05-05T09:24:56.732Z,68.70
2019-05-05T09:27:28.386Z,67.70
2019-05-05T09:29:57.573Z,68.90
2019-05-05T09:32:26.637Z,64.80
2019-05-05T09:34:55.686Z,64.70
2019-05-05T09:37:24.980Z,67.30
2019-05-05T09:39:54.249Z,65.00
2019-05-05T09:42:23.691Z,66.40
2019-05-05T09:44:54.169Z,67.60
2019-05-05T09:47:25.192Z,66.70
2019-05-05T09:49:54.978Z,63.40
2019-05-05T09:52:24.475Z,62.40
2019-05-05T09:54:54.398Z,61.00
2019-05-05T09:57:23.813Z,59.60
2019-05-05T09:59:54.673Z,61.40
2019-05-05T10:02:24.102Z,63.40
2019-05-05T10:04:54.665Z,64.00
2019-05-05T10:07:24.354Z,60.80
2019-05-05T10:09:54.266Z,61.60
2019-05-05T10:12:23.451Z,58.50
2019-05-05T10:14:54.234Z,59.00
2019-05-05T10:17:24.379Z,60.60
2019-05-05T10:19:54.695Z,63.30
2019-05-05T10:22:23.934Z,60.00
2019-05-05T10:24:57.371Z,59.20
2019-05-05T10:27:25.548Z,60.00
2019-05-05T10:29:54.881Z,60.40
2019-05-05T10:32:24.581Z,61.30
2019-05-05T10:34:55.428Z,60.70
2019-05-05T10:37:43.879Z,58.20
2019-05-05T10:40:14.900Z,57.20
2019-05-05T10:42:50.159Z,60.40
2019-05-05T10:45:21.516Z,61.60
2019-05-05T10:47:51.832Z,61.90
2019-05-05T10:50:21.112Z,61.70
2019-05-05T10:52:50.235Z,61.70
2019-05-05T10:55:19.739Z,63.50
2019-05-05T10:57:48.801Z,60.30
2019-05-05T11:00:37.409Z,59.80
2019-05-05T11:03:06.547Z,60.70
2019-05-05T11:05:37.784Z,61.00
2019-05-05T11:08:06.729Z,59.80
2019-05-05T11:10:36.047Z,62.80
2019-05-05T11:13:05.245Z,59.90
2019-05-05T11:15:34.281Z,58.20
2019-05-05T11:18:04.117Z,58.20
2019-05-05T11:20:34.080Z,57.00
2019-05-05T11:23:04.878Z,56.80
2019-05-05T11:25:34.173Z,57.30
2019-05-05T11:28:04.922Z,57.90
2019-05-05T11:30:37.551Z,59.10
2019-05-05T11:33:17.184Z,60.40
2019-05-05T11:35:57.752Z,60.10
2019-05-05T11:38:26.814Z,61.90
2019-05-05T11:40:55.859Z,63.60
2019-05-05T11:43:24.981Z,62.30
2019-05-05T11:45:54.571Z,62.90
2019-05-05T11:48:24.177Z,60.70
2019-05-05T11:50:54.026Z,63.20
2019-05-05T11:53:25.155Z,62.40
2019-05-05T11:55:54.903Z,61.90
2019-05-05T11:58:24.917Z,61.30
2019-05-05T12:00:54.715Z,61.80
2019-05-05T12:03:23.980Z,59.10
2019-05-05T12:05:53.107Z,57.70
2019-05-05T12:08:23.818Z,59.80
2019-05-05T12:11:00.437Z,59.30
2019-05-05T12:13:29.483Z,56.90
2019-05-05T12:16:00.380Z,57.90
2019-05-05T12:18:29.515Z,58.70
2019-05-05T12:20:58.586Z,59.90
2019-05-05T12:23:27.696Z,62.20
2019-05-05T12:26:01.144Z,62.60
2019-05-05T12:28:34.760Z,62.10
2019-05-05T12:31:11.328Z,62.00
2019-05-05T12:33:40.353Z,60.60
2019-05-05T12:36:09.492Z,61.10
2019-05-05T12:38:38.556Z,61.20
2019-05-05T12:41:07.596Z,59.50
2019-05-05T12:43:36.735Z,59.10
2019-05-05T12:46:07.479Z,57.60
2019-05-05T12:48:43.686Z,59.10
2019-05-05T12:51:14.609Z,58.20
2019-05-05T12:53:43.238Z,57.80
2019-05-05T12:56:14.487Z,58.00
2019-05-05T12:58:43.995Z,58.30
2019-05-05T13:01:15.544Z,57.60
2019-05-05T13:03:44.574Z,57.00
2019-05-05T13:07:04.977Z,57.60
2019-05-05T13:09:34.159Z,56.80
2019-05-05T13:12:04.528Z,55.90
2019-05-05T13:14:33.759Z,54.00
2019-05-05T13:17:03.626Z,57.00
2019-05-05T13:19:34.756Z,58.70
2019-05-05T13:22:25.472Z,58.30
2019-05-05T13:25:05.101Z,58.70
2019-05-05T13:27:35.795Z,57.90
2019-05-05T13:30:08.181Z,60.70
2019-05-05T13:32:37.367Z,60.00
2019-05-05T13:35:07.740Z,59.90
2019-05-05T13:37:36.788Z,57.40
2019-05-05T13:40:07.272Z,56.60
2019-05-05T13:42:36.315Z,53.50
2019-05-05T13:45:11.135Z,54.60
2019-05-05T13:47:40.187Z,53.60
2019-05-05T13:50:17.743Z,54.30
2019-05-05T13:52:46.793Z,57.10
2019-05-05T13:55:16.052Z,55.60
2019-05-05T13:57:45.103Z,56.20
2019-05-05T14:00:16.317Z,55.30
2019-05-05T14:02:45.355Z,54.70
2019-05-05T14:05:14.549Z,59.80
2019-05-05T14:07:43.793Z,61.20
2019-05-05T14:10:14.400Z,62.80
2019-05-05T14:12:43.847Z,62.80
2019-05-05T14:15:19.040Z,62.60
2019-05-05T14:17:48.319Z,58.60
2019-05-05T14:20:17.785Z,57.50
2019-05-05T14:22:46.832Z,60.80
2019-05-05T14:25:17.758Z,60.70
2019-05-05T14:27:46.878Z,65.40
2019-05-05T14:30:23.897Z,70.00
2019-05-05T14:32:54.430Z,72.90
2019-05-05T14:35:25.376Z,71.30
2019-05-05T14:37:56.063Z,69.70
2019-05-05T14:40:25.127Z,71.10
2019-05-05T14:42:54.184Z,74.10
2019-05-05T14:45:23.573Z,77.30
2019-05-05T14:47:53.524Z,76.90
2019-05-05T14:50:24.227Z,77.90
2019-05-05T14:52:53.629Z,77.30
2019-05-05T14:55:22.752Z,77.70
2019-05-05T14:57:53.474Z,75.80
2019-05-05T15:00:24.526Z,75.00
2019-05-05T15:02:54.484Z,75.90
2019-05-05T15:05:40.521Z,77.60
2019-05-05T15:08:19.912Z,77.60
2019-05-05T15:10:50.607Z,79.00
2019-05-05T15:13:21.147Z,79.50
2019-05-05T15:15:50.249Z,80.50
2019-05-05T15:18:19.308Z,80.00
2019-05-05T15:20:48.334Z,76.60
2019-05-05T15:23:17.360Z,75.90
2019-05-05T15:25:46.406Z,76.10
2019-05-05T15:28:15.431Z,75.30
2019-05-05T15:30:44.494Z,73.90
2019-05-05T15:33:13.873Z,72.80
2019-05-05T15:35:46.056Z,72.90
2019-05-05T15:38:13.889Z,74.90
2019-05-05T15:40:44.981Z,75.90
2019-05-05T15:43:14.438Z,76.90
2019-05-05T15:45:43.483Z,77.50
2019-05-05T15:48:13.980Z,77.20
2019-05-05T15:50:43.925Z,76.30
2019-05-05T15:53:14.379Z,77.10
2019-05-05T15:55:44.109Z,75.70
2019-05-05T15:58:14.197Z,75.70
2019-05-05T16:00:44.318Z,76.20
2019-05-05T16:03:13.625Z,76.20
2019-05-05T16:05:43.644Z,74.20
2019-05-05T16:08:14.116Z,75.20
2019-05-05T16:10:46.191Z,74.90
2019-05-05T16:13:14.112Z,76.60
2019-05-05T16:15:44.793Z,78.90
2019-05-05T16:18:18.400Z,77.50
2019-05-05T16:20:54.789Z,76.30
2019-05-05T16:23:28.231Z,76.80
2019-05-05T16:25:56.785Z,77.30
2019-05-05T16:28:25.843Z,75.30
2019-05-05T16:30:56.248Z,73.10
2019-05-05T16:33:25.401Z,73.30
2019-05-05T16:35:54.462Z,72.70
2019-05-05T16:38:24.055Z,72.40
2019-05-05T16:40:53.790Z,70.90
2019-05-05T16:43:24.728Z,72.40
2019-05-05T16:45:53.885Z,73.30
2019-05-05T16:48:25.379Z,74.70
2019-05-05T16:50:54.182Z,75.70
2019-05-05T16:53:35.784Z,74.70
2019-05-05T16:56:07.828Z,74.70
2019-05-05T16:58:36.934Z,74.70
2019-05-05T17:01:07.610Z,75.90
2019-05-05T17:03:36.648Z,77.70
2019-05-05T17:06:05.764Z,76.40
2019-05-05T17:08:34.804Z,77.30
2019-05-05T17:11:03.915Z,79.50
2019-05-05T17:13:44.095Z,80.00
2019-05-05T17:16:30.868Z,80.30
2019-05-05T17:19:01.539Z,80.70
2019-05-05T17:21:47.209Z,81.10
2019-05-05T17:24:16.352Z,81.80
2019-05-05T17:26:45.392Z,82.40
2019-05-05T17:29:14.702Z,83.50
2019-05-05T17:31:44.426Z,84.30
2019-05-05T17:34:13.823Z,84.50
2019-05-05T17:36:45.111Z,84.60
2019-05-05T17:39:13.810Z,85.90
2019-05-05T17:41:44.601Z,86.70
2019-05-05T17:44:15.344Z,86.80
2019-05-05T17:46:49.004Z,86.30
2019-05-05T17:49:22.916Z,86.80
2019-05-05T17:51:54.561Z,85.40
2019-05-05T17:54:36.656Z,85.90
2019-05-05T17:57:05.700Z,85.70
2019-05-05T17:59:34.747Z,85.90
2019-05-05T18:02:04.763Z,86.10
2019-05-05T18:04:34.073Z,85.30
2019-05-05T18:07:04.760Z,85.60
2019-05-05T18:09:53.785Z,86.20
2019-05-05T18:12:24.685Z,86.80
2019-05-05T18:14:58.045Z,87.10
2019-05-05T18:17:37.033Z,87.80
2019-05-05T18:20:06.998Z,88.30
2019-05-05T18:22:36.047Z,89.50
2019-05-05T18:25:06.221Z,90.20
2019-05-05T18:27:35.316Z,90.90
2019-05-05T18:30:06.078Z,90.60
2019-05-05T18:32:35.120Z,90.20
2019-05-05T18:35:06.753Z,89.40
2019-05-05T18:37:36.016Z,90.10
2019-05-05T18:40:06.652Z,93.10
2019-05-05T18:42:35.863Z,94.40
2019-05-05T18:45:08.863Z,94.80
2019-05-05T18:47:37.910Z,96.70
2019-05-05T18:50:07.479Z,95.90
2019-05-05T18:52:36.516Z,95.70
2019-05-05T18:55:07.025Z,95.50
2019-05-05T18:57:36.071Z,95.80
2019-05-05T19:00:09.936Z,95.70
2019-05-05T19:02:49.509Z,95.40
2019-05-05T19:05:29.356Z,95.30
2019-05-05T19:08:09.015Z,95.30
2019-05-05T19:10:38.116Z,95.50
2019-05-05T19:13:07.185Z,95.00
2019-05-05T19:15:36.278Z,94.30
2019-05-05T19:18:06.963Z,94.00
2019-05-05T19:20:44.421Z,94.20
2019-05-05T19:23:14.772Z,94.70
2019-05-05T19:25:44.854Z,94.50
2019-05-05T19:28:14.308Z,95.50
2019-05-05T19:30:44.060Z,95.10
2019-05-05T19:33:13.473Z,94.60
2019-05-05T19:35:46.912Z,94.80
2019-05-05T19:38:15.777Z,95.10
2019-05-05T19:40:45.087Z,96.00
2019-05-05T19:43:14.178Z,96.70
2019-05-05T19:45:44.817Z,97.00
2019-05-05T19:48:14.924Z,97.20
2019-05-05T19:50:51.650Z,97.40
2019-05-05T19:53:24.914Z,96.70
2019-05-05T19:55:54.853Z,96.80
2019-05-05T19:58:24.142Z,96.40
2019-05-05T20:00:54.953Z,96.20
2019-05-05T20:03:24.274Z,95.70
2019-05-05T20:05:54.056Z,95.50
2019-05-05T20:08:23.973Z,95.40
2019-05-05T20:10:54.191Z,95.50
2019-05-05T20:13:24.009Z,95.20
2019-05-05T20:16:04.521Z,95.30
2019-05-05T20:18:34.251Z,95.40
2019-05-05T20:21:06.835Z,95.60
2019-05-05T20:23:34.535Z,95.60
2019-05-05T20:26:03.954Z,95.60
2019-05-05T20:28:33.878Z,95.40
2019-05-05T20:31:03.698Z,95.40
2019-05-05T20:33:40.770Z,95.90
2019-05-05T20:36:11.532Z,96.10
2019-05-05T20:38:51.079Z,96.20
2019-05-05T20:41:21.411Z,95.80
2019-05-05T20:43:50.444Z,96.30
2019-05-05T20:46:19.561Z,96.70
2019-05-05T20:48:48.609Z,96.60
2019-05-05T20:51:17.745Z,96.40
2019-05-05T20:53:49.090Z,96.20
2019-05-05T20:56:17.538Z,95.90
2019-05-05T20:58:46.641Z,96.00
2019-05-05T21:01:15.689Z,96.20
2019-05-05T21:03:44.863Z,96.20
2019-05-05T21:06:14.040Z,96.70
2019-05-05T21:08:44.005Z,96.80
2019-05-05T21:11:14.156Z,97.10
2019-05-05T21:13:45.082Z,96.90
2019-05-05T21:16:14.400Z,97.00
2019-05-05T21:18:43.592Z,97.40
2019-05-05T21:21:14.284Z,97.70
2019-05-05T21:23:44.949Z,97.90
2019-05-05T21:26:18.613Z,98.30
2019-05-05T21:28:47.369Z,98.30
2019-05-05T21:31:16.412Z,98.50
2019-05-05T21:33:45.528Z,99.00
2019-05-05T21:36:14.772Z,99.00
2019-05-05T21:38:44.079Z,99.20
2019-05-05T21:41:13.872Z,99.50
2019-05-05T21:43:44.886Z,99.90
2019-05-05T21:46:13.892Z,99.90
2019-05-05T21:48:44.802Z,99.90
2019-05-05T21:51:30.084Z,99.80
2019-05-05T21:54:17.215Z,99.70
2019-05-05T21:57:04.461Z,99.90
2019-05-05T21:59:33.772Z,99.80
2019-05-05T22:02:03.950Z,99.90
2019-05-05T22:04:33.765Z,99.90
2019-05-05T22:07:03.731Z,99.90
2019-05-05T22:09:33.121Z,99.90
2019-05-05T22:12:04.019Z,99.90
2019-05-05T22:14:34.139Z,99.90
2019-05-05T22:17:04.083Z,99.90
2019-05-05T22:19:53.804Z,99.90
2019-05-05T22:22:24.258Z,99.90
2019-05-05T22:24:54.097Z,99.90
2019-05-05T22:27:23.764Z,99.90
2019-05-05T22:29:55.335Z,99.90
2019-05-05T22:32:24.949Z,99.90
2019-05-05T22:34:54.206Z,99.90
2019-05-05T22:37:23.664Z,99.90
2019-05-05T22:39:54.180Z,99.90
2019-05-05T22:42:24.642Z,99.90
2019-05-05T22:44:53.939Z,99.90
2019-05-05T22:47:23.664Z,99.90
2019-05-05T22:49:54.820Z,99.90
2019-05-05T22:52:25.444Z,99.90
2019-05-05T22:54:54.460Z,99.90
2019-05-05T22:57:24.747Z,99.90
2019-05-05T22:59:54.212Z,99.90
2019-05-05T23:02:25.037Z,99.90
2019-05-05T23:05:03.937Z,99.90
2019-05-05T23:07:34.968Z,99.90
2019-05-05T23:10:08.056Z,99.90
2019-05-05T23:12:37.169Z,99.90
2019-05-05T23:15:08.065Z,99.90
2019-05-05T23:17:38.752Z,99.90
2019-05-05T23:20:16.295Z,99.90
2019-05-05T23:22:47.180Z,99.90
2019-05-05T23:25:17.875Z,99.90
2019-05-05T23:27:47.297Z,99.90
2019-05-05T23:30:18.556Z,99.90
2019-05-05T23:32:48.488Z,99.90
2019-05-05T23:35:18.081Z,99.90
2019-05-05T23:37:47.208Z,99.90
2019-05-05T23:40:26.945Z,99.90
2019-05-05T23:42:55.994Z,99.90
2019-05-05T23:45:25.163Z,99.90
2019-05-05T23:47:54.757Z,99.90
2019-05-05T23:50:24.255Z,99.90
2019-05-05T23:52:54.406Z,99.90
2019-05-05T23:55:24.236Z,99.90
2019-05-05T23:57:54.640Z,99.90
